Time;durP1;ratioP1;P1;durP2;ratioP2;P2;SDS_P1;SDS_P2;PMS_P1;PMS_P2;Temp;Humidity;BMP_temperature;BMP_pressure;BME280_temperature;BME280_humidity;BME280_pressure;Samples;Min_cycle;Max_cycle;Signal;HPM_P1;HPM_P2
2022/06/13 00:01:39;;;;;;;19.85;10.40;;;;;;;;;;5048449;28;20076;-74
2022/06/13 00:04:09;;;;;;;19.23;9.35;;;;;;;;;;5048769;28;20048;-71
2022/06/13 00:06:40;;;;;;;20.85;8.73;;;;;;;;;;5048010;28;20048;-71
2022/06/13 00:09:10;;;;;;;24.95;8.75;;;;;;;;;;5048391;28;20053;-71
2022/06/13 00:11:44;;;;;;;16.85;10.45;;;;;;;;;;5047533;28;20048;-72
2022/06/13 00:14:14;;;;;;;16.30;9.73;;;;;;;;;;5047877;28;20595;-72
2022/06/13 00:16:43;;;;;;;22.48;10.40;;;;;;;;;;5047998;28;20041;-72
2022/06/13 00:19:13;;;;;;;14.95;9.35;;;;;;;;;;5047851;28;20044;-73
2022/06/13 00:21:43;;;;;;;19.08;9.82;;;;;;;;;;5047759;28;20044;-72
2022/06/13 00:24:13;;;;;;;16.98;10.55;;;;;;;;;;5047782;28;20048;-72
2022/06/13 00:26:43;;;;;;;19.30;9.40;;;;;;;;;;5047466;28;20053;-72
2022/06/13 00:29:12;;;;;;;24.10;9.88;;;;;;;;;;5045717;28;20063;-73
2022/06/13 00:31:42;;;;;;;22.50;8.88;;;;;;;;;;5044065;28;20055;-73
2022/06/13 00:34:13;;;;;;;20.35;9.55;;;;;;;;;;5045419;28;20416;-72
2022/06/13 00:36:43;;;;;;;12.48;8.20;;;;;;;;;;5045922;28;20084;-70
2022/06/13 00:39:14;;;;;;;16.52;7.93;;;;;;;;;;5045766;28;20052;-71
2022/06/13 00:41:44;;;;;;;18.50;8.55;;;;;;;;;;5046171;28;20037;-71
2022/06/13 00:44:24;;;;;;;15.27;8.05;;;;;;;;;;5046012;28;20500;-71
2022/06/13 00:46:55;;;;;;;14.23;8.13;;;;;;;;;;5047900;28;20049;-71
2022/06/13 00:49:45;;;;;;;16.08;7.85;;;;;;;;;;5047668;28;20049;-74
2022/06/13 00:52:28;;;;;;;14.55;7.63;;;;;;;;;;5047664;28;20390;-72
2022/06/13 00:54:58;;;;;;;15.55;8.18;;;;;;;;;;5047700;28;20053;-71
2022/06/13 00:57:29;;;;;;;17.73;8.23;;;;;;;;;;5047197;28;20420;-70
2022/06/13 01:00:06;;;;;;;12.63;8.25;;;;;;;;;;5047532;28;20076;-71
2022/06/13 01:02:41;;;;;;;12.93;8.10;;;;;;;;;;5047626;28;20060;-71
2022/06/13 01:05:13;;;;;;;13.30;7.43;;;;;;;;;;5047416;28;20041;-72
2022/06/13 01:07:45;;;;;;;11.63;7.60;;;;;;;;;;5046237;28;20068;-74
2022/06/13 01:13:08;;;;;;;11.43;6.30;;;;;;;;;;5047605;28;20044;-72
2022/06/13 01:16:19;;;;;;;14.52;6.55;;;;;;;;;;5046719;28;20072;-72
2022/06/13 01:18:59;;;;;;;9.63;6.85;;;;;;;;;;5047419;28;20056;-73
2022/06/13 01:21:49;;;;;;;11.25;7.03;;;;;;;;;;5046433;28;20053;-73
2022/06/13 01:24:35;;;;;;;13.80;7.13;;;;;;;;;;5046963;28;20049;-72
2022/06/13 01:27:25;;;;;;;16.13;6.90;;;;;;;;;;5046645;28;20052;-72
2022/06/13 01:30:14;;;;;;;11.57;6.95;;;;;;;;;;5047710;28;20041;-73
2022/06/13 01:33:28;;;;;;;11.75;7.10;;;;;;;;;;5046875;28;20051;-72
2022/06/13 01:36:07;;;;;;;14.05;7.35;;;;;;;;;;5028241;28;20057;-73
2022/06/13 01:38:48;;;;;;;12.35;7.95;;;;;;;;;;5047284;28;20060;-73
2022/06/13 01:41:24;;;;;;;;;;;;;;;;;;5045823;28;20057;-73
2022/06/13 01:44:10;;;;;;;14.02;7.43;;;;;;;;;;5047164;28;20311;-73
2022/06/13 01:47:03;;;;;;;15.80;7.57;;;;;;;;;;5046022;28;20060;-72
2022/06/13 01:49:58;;;;;;;12.57;7.07;;;;;;;;;;5045341;28;20048;-73
2022/06/13 01:52:42;;;;;;;21.55;7.15;;;;;;;;;;5046640;28;20044;-73
2022/06/13 01:55:41;;;;;;;10.70;7.00;;;;;;;;;;5046337;28;20048;-73
2022/06/13 01:58:32;;;;;;;8.75;6.32;;;;;;;;;;5046191;28;20045;-73
2022/06/13 02:01:39;;;;;;;10.98;6.70;;;;;;;;;;5046803;28;20390;-72
2022/06/13 02:04:14;;;;;;;9.20;6.60;;;;;;;;;;5035150;28;20053;-72
2022/06/13 02:06:55;;;;;;;15.77;6.47;;;;;;;;;;5046801;28;20052;-72
2022/06/13 02:09:32;;;;;;;10.70;6.10;;;;;;;;;;5046391;28;20061;-72
2022/06/13 02:12:02;;;;;;;9.52;5.90;;;;;;;;;;5046643;28;20037;-72
2022/06/13 02:14:57;;;;;;;14.25;6.30;;;;;;;;;;5046368;28;20044;-72
2022/06/13 02:17:32;;;;;;;19.17;5.75;;;;;;;;;;5046712;28;20049;-72
2022/06/13 02:20:12;;;;;;;8.90;6.03;;;;;;;;;;5046295;28;20052;-72
2022/06/13 02:23:03;;;;;;;11.52;5.88;;;;;;;;;;5046338;28;20061;-72
2022/06/13 02:25:48;;;;;;;8.60;5.50;;;;;;;;;;5046705;28;20048;-72
2022/06/13 02:28:34;;;;;;;8.40;5.45;;;;;;;;;;5046646;28;20045;-72
2022/06/13 02:31:14;;;;;;;10.77;5.45;;;;;;;;;;5046820;28;20049;-72
2022/06/13 02:33:54;;;;;;;9.43;5.13;;;;;;;;;;5046804;28;20048;-72
2022/06/13 02:36:39;;;;;;;11.18;6.28;;;;;;;;;;5046185;28;20389;-72
2022/06/13 02:39:32;;;;;;;22.83;7.50;;;;;;;;;;5046501;28;20060;-72
2022/06/13 02:42:25;;;;;;;9.07;5.50;;;;;;;;;;5041439;28;20057;-73
2022/06/13 02:45:18;;;;;;;12.25;5.35;;;;;;;;;;5045734;28;20041;-72
2022/06/13 02:47:55;;;;;;;9.45;4.97;;;;;;;;;;5047263;28;20044;-72
2022/06/13 02:50:34;;;;;;;8.18;4.35;;;;;;;;;;5050402;28;20051;-72
2022/06/13 02:53:15;;;;;;;6.30;3.83;;;;;;;;;;5050225;28;20044;-72
2022/06/13 02:55:59;;;;;;;8.95;4.60;;;;;;;;;;5050051;28;20045;-72
2022/06/13 02:58:53;;;;;;;9.23;4.60;;;;;;;;;;5048427;28;20060;-72
2022/06/13 03:01:34;;;;;;;8.70;3.53;;;;;;;;;;5050377;28;20684;-72
2022/06/13 03:04:11;;;;;;;;;;;;;;;;;;5050832;28;20037;-72
2022/06/13 03:07:07;;;;;;;8.57;4.03;;;;;;;;;;5049759;28;19932;-72
2022/06/13 03:09:43;;;;;;;7.13;3.25;;;;;;;;;;5049641;28;20053;-72
2022/06/13 03:12:39;;;;;;;10.10;3.63;;;;;;;;;;5049807;28;20049;-72
2022/06/13 03:15:18;;;;;;;5.07;3.30;;;;;;;;;;5049824;28;20052;-72
2022/06/13 03:18:06;;;;;;;6.30;3.50;;;;;;;;;;5049615;28;20041;-72
2022/06/13 03:20:42;;;;;;;11.07;4.75;;;;;;;;;;5050037;28;20041;-72
2022/06/13 03:23:29;;;;;;;7.38;3.70;;;;;;;;;;5048484;28;20508;-72
2022/06/13 03:26:06;;;;;;;5.75;3.83;;;;;;;;;;5049686;28;20061;-72
2022/06/13 03:28:49;;;;;;;7.05;3.72;;;;;;;;;;5048719;28;20049;-72
2022/06/13 03:31:45;;;;;;;11.48;6.05;;;;;;;;;;5049351;28;20044;-72
2022/06/13 03:34:29;;;;;;;7.00;4.65;;;;;;;;;;5047737;28;20779;-72
2022/06/13 03:37:17;;;;;;;10.55;5.10;;;;;;;;;;5049049;28;20048;-72
2022/06/13 03:39:50;;;;;;;7.80;4.88;;;;;;;;;;5048505;28;20045;-72
2022/06/13 03:42:28;;;;;;;7.03;4.55;;;;;;;;;;5048994;28;20409;-72
2022/06/13 03:45:20;;;;;;;9.73;4.22;;;;;;;;;;5049087;28;20045;-72
2022/06/13 03:47:56;;;;;;;7.82;4.72;;;;;;;;;;5047713;28;20060;-72
2022/06/13 03:50:31;;;;;;;7.28;4.30;;;;;;;;;;5049316;28;20041;-72
2022/06/13 03:53:11;;;;;;;11.20;4.18;;;;;;;;;;5049170;28;20529;-72
2022/06/13 03:55:53;;;;;;;9.70;4.18;;;;;;;;;;5048981;28;20056;-72
2022/06/13 03:58:30;;;;;;;8.88;3.60;;;;;;;;;;5048598;28;20053;-72
2022/06/13 04:01:12;;;;;;;8.68;4.43;;;;;;;;;;5048944;28;20512;-72
2022/06/13 04:03:43;;;;;;;7.28;4.10;;;;;;;;;;5049200;28;20056;-72
2022/06/13 04:06:41;;;;;;;8.03;3.70;;;;;;;;;;5047626;28;20052;-72
2022/06/13 04:09:36;;;;;;;6.55;3.45;;;;;;;;;;5047831;28;20065;-72
2022/06/13 04:12:19;;;;;;;5.43;3.58;;;;;;;;;;5046880;28;20041;-72
2022/06/13 04:14:58;;;;;;;12.00;3.53;;;;;;;;;;5049366;28;20385;-72
2022/06/13 04:18:01;;;;;;;5.35;3.50;;;;;;;;;;5048230;28;20053;-71
2022/06/13 04:21:08;;;;;;;6.55;3.95;;;;;;;;;;5048248;28;20409;-72
2022/06/13 04:24:16;;;;;;;5.93;3.30;;;;;;;;;;5048516;28;20048;-71
2022/06/13 04:26:52;;;;;;;7.70;3.10;;;;;;;;;;5005293;28;20046;-71
2022/06/13 04:29:35;;;;;;;4.50;3.15;;;;;;;;;;5006015;28;20537;-71
2022/06/13 04:32:12;;;;;;;8.45;2.90;;;;;;;;;;5034197;28;20072;-71
2022/06/13 04:34:47;;;;;;;7.07;2.83;;;;;;;;;;5046828;28;20064;-71
2022/06/13 04:37:20;;;;;;;6.30;3.20;;;;;;;;;;5047791;28;20633;-71
2022/06/13 04:39:53;;;;;;;4.45;2.97;;;;;;;;;;5048111;28;20044;-71
2022/06/13 04:42:25;;;;;;;7.43;3.08;;;;;;;;;;5047959;28;20493;-71
2022/06/13 04:45:00;;;;;;;6.13;3.22;;;;;;;;;;5047971;28;20052;-71
2022/06/13 04:47:32;;;;;;;9.75;3.83;;;;;;;;;;5048280;28;20404;-71
2022/06/13 04:50:03;;;;;;;8.25;2.90;;;;;;;;;;5048047;28;20412;-71
2022/06/13 04:52:36;;;;;;;2.95;2.38;;;;;;;;;;5048081;28;20670;-71
2022/06/13 04:55:19;;;;;;;6.63;2.83;;;;;;;;;;5047405;28;20056;-71
2022/06/13 04:57:50;;;;;;;5.32;2.53;;;;;;;;;;5047802;28;20060;-71
2022/06/13 05:00:22;;;;;;;10.63;2.83;;;;;;;;;;5047391;28;20052;-71
2022/06/13 05:02:55;;;;;;;4.93;2.72;;;;;;;;;;5047710;28;20041;-71
2022/06/13 05:05:46;;;;;;;6.15;2.42;;;;;;;;;;5047768;28;20049;-71
2022/06/13 05:08:27;;;;;;;;;;;;;;;;;;5048322;28;20063;-71
2022/06/13 05:11:22;;;;;;;5.13;2.90;;;;;;;;;;5047071;28;19921;-71
2022/06/13 05:14:05;;;;;;;3.35;2.20;;;;;;;;;;5047642;28;20045;-71
2022/06/13 05:17:05;;;;;;;7.30;2.85;;;;;;;;;;5047278;28;20040;-71
2022/06/13 05:19:40;;;;;;;4.13;2.63;;;;;;;;;;5046079;28;20056;-71
2022/06/13 05:22:31;;;;;;;4.13;2.70;;;;;;;;;;5047135;28;20056;-71
2022/06/13 05:25:08;;;;;;;6.68;2.60;;;;;;;;;;5047393;28;20048;-71
2022/06/13 05:27:38;;;;;;;4.85;2.30;;;;;;;;;;5046857;28;20045;-71
2022/06/13 05:30:14;;;;;;;5.00;2.38;;;;;;;;;;5045970;28;20057;-71
2022/06/13 05:32:44;;;;;;;12.93;2.75;;;;;;;;;;5046959;28;20512;-71
2022/06/13 05:35:22;;;;;;;7.47;3.13;;;;;;;;;;5047165;28;20049;-71
2022/06/13 05:37:54;;;;;;;3.45;2.60;;;;;;;;;;5047923;28;20049;-71
2022/06/13 05:40:25;;;;;;;5.03;3.50;;;;;;;;;;5047382;28;20053;-71
2022/06/13 05:42:54;;;;;;;6.18;3.00;;;;;;;;;;5046801;28;20045;-72
2022/06/13 05:45:25;;;;;;;5.18;2.65;;;;;;;;;;5047292;28;20508;-71
2022/06/13 05:47:54;;;;;;;5.38;2.85;;;;;;;;;;5046526;28;20496;-71
2022/06/13 05:50:29;;;;;;;5.15;2.22;;;;;;;;;;5046471;28;20511;-71
2022/06/13 05:53:00;;;;;;;8.48;2.78;;;;;;;;;;5046261;28;20053;-71
2022/06/13 05:55:30;;;;;;;4.47;2.90;;;;;;;;;;5046432;28;20052;-71
2022/06/13 05:58:02;;;;;;;4.53;2.88;;;;;;;;;;5046634;28;20045;-71
2022/06/13 06:00:40;;;;;;;5.57;3.20;;;;;;;;;;5047352;28;20057;-71
2022/06/13 06:03:10;;;;;;;7.47;2.72;;;;;;;;;;5046259;28;20409;-71
2022/06/13 06:05:41;;;;;;;6.10;2.95;;;;;;;;;;5046731;28;20053;-71
2022/06/13 06:08:20;;;;;;;12.45;2.83;;;;;;;;;;5046347;28;20060;-71
2022/06/13 06:10:52;;;;;;;9.35;2.97;;;;;;;;;;5046801;28;20068;-71
2022/06/13 06:13:23;;;;;;;5.00;2.75;;;;;;;;;;5046771;28;20041;-71
2022/06/13 06:15:54;;;;;;;4.70;3.17;;;;;;;;;;5046626;28;20056;-71
2022/06/13 06:18:26;;;;;;;5.65;2.67;;;;;;;;;;5045999;28;20294;-71
2022/06/13 06:20:57;;;;;;;3.70;2.70;;;;;;;;;;5046592;28;20045;-71
2022/06/13 06:23:26;;;;;;;3.58;2.40;;;;;;;;;;5049812;28;20059;-71
2022/06/13 06:25:58;;;;;;;6.25;2.88;;;;;;;;;;5050647;28;20051;-71
2022/06/13 06:28:28;;;;;;;4.68;2.72;;;;;;;;;;5050026;28;20056;-71
2022/06/13 06:30:59;;;;;;;4.30;2.72;;;;;;;;;;5050216;28;20060;-71
2022/06/13 06:33:29;;;;;;;6.28;2.70;;;;;;;;;;5049885;28;20436;-71
2022/06/13 06:35:59;;;;;;;6.13;2.55;;;;;;;;;;5050942;28;20415;-71
2022/06/13 06:38:29;;;;;;;5.28;2.40;;;;;;;;;;5050000;28;20420;-71
2022/06/13 06:40:59;;;;;;;4.20;2.15;;;;;;;;;;5050190;28;20052;-71
2022/06/13 06:43:30;;;;;;;;;;;;;;;;;;5050557;28;20065;-71
2022/06/13 06:45:59;;;;;;;7.65;1.90;;;;;;;;;;5050168;28;19932;-71
2022/06/13 06:48:30;;;;;;;3.75;2.30;;;;;;;;;;5049696;28;20075;-71
2022/06/13 06:51:00;;;;;;;3.75;2.53;;;;;;;;;;5049700;28;20530;-71
2022/06/13 06:59:53;;;;;;;4.35;2.22;;;;;;;;;;5049484;28;20045;-71
2022/06/13 07:01:59;;;;;;;4.45;2.50;;;;;;;;;;5050009;28;20056;-71
2022/06/13 07:04:29;;;;;;;6.15;1.80;;;;;;;;;;5050965;28;20056;-71
2022/06/13 07:06:59;;;;;;;3.75;2.00;;;;;;;;;;5049734;28;20049;-71
2022/06/13 07:09:29;;;;;;;3.15;1.75;;;;;;;;;;5049699;28;20060;-71
2022/06/13 07:11:59;;;;;;;3.65;2.10;;;;;;;;;;5050022;28;20041;-71
2022/06/13 07:14:35;;;;;;;5.38;2.08;;;;;;;;;;5049854;28;20412;-71
2022/06/13 07:17:07;;;;;;;3.55;1.70;;;;;;;;;;5049802;28;20053;-71
2022/06/13 07:19:37;;;;;;;6.65;2.25;;;;;;;;;;5047904;28;20049;-71
2022/06/13 07:22:08;;;;;;;4.32;1.85;;;;;;;;;;5049210;28;20072;-71
2022/06/13 07:24:38;;;;;;;4.63;2.22;;;;;;;;;;5049313;28;20048;-72
2022/06/13 07:27:07;;;;;;;3.38;2.03;;;;;;;;;;5049262;28;20053;-71
2022/06/13 07:29:38;;;;;;;3.80;1.90;;;;;;;;;;5049754;28;20044;-71
2022/06/13 07:32:14;;;;;;;4.50;2.47;;;;;;;;;;5049793;28;20054;-71
2022/06/13 07:34:47;;;;;;;5.43;2.38;;;;;;;;;;5048143;28;20049;-71
2022/06/13 07:40:10;;;;;;;5.38;2.33;;;;;;;;;;5049078;28;20052;-71
2022/06/13 07:42:54;;;;;;;2.47;1.85;;;;;;;;;;5049083;28;20044;-70
2022/06/13 07:45:27;;;;;;;3.58;2.35;;;;;;;;;;5049381;28;20045;-71
2022/06/13 07:48:17;;;;;;;2.90;2.30;;;;;;;;;;5048809;28;20503;-71
2022/06/13 07:50:47;;;;;;;3.88;2.10;;;;;;;;;;5048814;28;20048;-71
2022/06/13 07:53:17;;;;;;;9.57;2.33;;;;;;;;;;5048887;28;20060;-71
2022/06/13 07:56:07;;;;;;;5.20;2.30;;;;;;;;;;5049502;28;20492;-71
2022/06/13 07:58:38;;;;;;;3.90;2.13;;;;;;;;;;5048920;28;20504;-71
2022/06/13 08:01:09;;;;;;;;;;;;;;;;;;5049218;28;20052;-71
2022/06/13 08:03:40;;;;;;;5.03;2.30;;;;;;;;;;5048583;28;20285;-71
2022/06/13 08:06:11;;;;;;;3.43;1.93;;;;;;;;;;5048800;28;20056;-71
2022/06/13 08:08:42;;;;;;;7.15;2.40;;;;;;;;;;5048490;28;20531;-71
2022/06/13 08:11:16;;;;;;;3.72;2.20;;;;;;;;;;5048263;28;20053;-71
2022/06/13 08:13:46;;;;;;;5.25;2.22;;;;;;;;;;5048782;28;20492;-71
2022/06/13 08:16:15;;;;;;;4.65;2.22;;;;;;;;;;5048678;28;20049;-71
2022/06/13 08:18:45;;;;;;;4.05;2.20;;;;;;;;;;5048580;28;20397;-71
2022/06/13 08:21:17;;;;;;;3.90;2.40;;;;;;;;;;5049209;28;20053;-71
2022/06/13 08:23:46;;;;;;;;;;;;;;;;;;5049321;28;20048;-71
2022/06/13 08:26:16;;;;;;;4.03;1.98;;;;;;;;;;5048336;28;19931;-71
2022/06/13 08:28:46;;;;;;;5.38;1.83;;;;;;;;;;5048237;28;20060;-71
2022/06/13 08:31:20;;;;;;;5.13;2.10;;;;;;;;;;5048090;28;20495;-71
2022/06/13 08:33:51;;;;;;;5.97;2.58;;;;;;;;;;5048227;28;20053;-71
2022/06/13 08:36:21;;;;;;;;;;;;;;;;;;5048709;28;20053;-71
2022/06/13 08:38:51;;;;;;;5.28;2.90;;;;;;;;;;5048351;28;20319;-71
2022/06/13 08:41:29;;;;;;;6.55;2.25;;;;;;;;;;5048206;28;20056;-71
2022/06/13 08:44:26;;;;;;;2.78;2.00;;;;;;;;;;5046385;28;20500;-71
2022/06/13 08:46:58;;;;;;;4.93;2.13;;;;;;;;;;5048072;28;20038;-71
2022/06/13 08:49:40;;;;;;;5.15;2.25;;;;;;;;;;5048324;28;20045;-71
2022/06/13 08:52:19;;;;;;;5.45;2.42;;;;;;;;;;5047664;28;20051;-71
2022/06/13 08:55:07;;;;;;;9.45;2.30;;;;;;;;;;5048281;28;20049;-71
2022/06/13 08:57:44;;;;;;;4.00;2.10;;;;;;;;;;5048424;28;20053;-70
2022/06/13 09:00:21;;;;;;;4.68;1.98;;;;;;;;;;5046169;28;20057;-72
2022/06/13 09:03:01;;;;;;;3.13;1.92;;;;;;;;;;5047508;28;20045;-71
2022/06/13 09:05:57;;;;;;;2.85;1.80;;;;;;;;;;5046630;28;20049;-71
2022/06/13 09:08:50;;;;;;;3.22;2.10;;;;;;;;;;5043219;28;20049;-71
2022/06/13 09:11:47;;;;;;;7.93;2.00;;;;;;;;;;5047601;28;20055;-71
2022/06/13 09:14:21;;;;;;;2.05;1.80;;;;;;;;;;5043824;28;20057;-72
2022/06/13 09:17:13;;;;;;;5.40;2.08;;;;;;;;;;5047450;28;20045;-72
2022/06/13 09:20:00;;;;;;;3.97;1.98;;;;;;;;;;5047635;28;20044;-71
2022/06/13 09:22:45;;;;;;;5.55;2.40;;;;;;;;;;5047391;28;20041;-71
2022/06/13 09:25:38;;;;;;;3.05;2.10;;;;;;;;;;5047473;28;20052;-71
2022/06/13 09:28:54;;;;;;;9.35;2.17;;;;;;;;;;5046843;28;20049;-71
2022/06/13 09:31:28;;;;;;;12.60;2.53;;;;;;;;;;5031503;28;20069;-71
2022/06/13 09:34:26;;;;;;;6.25;2.22;;;;;;;;;;5046606;28;20068;-72
2022/06/13 09:37:19;;;;;;;8.43;2.45;;;;;;;;;;5045795;28;20053;-71
2022/06/13 09:39:49;;;;;;;9.10;2.28;;;;;;;;;;5047096;28;20052;-72
2022/06/13 09:42:30;;;;;;;16.75;3.28;;;;;;;;;;5046984;28;20048;-72
2022/06/13 09:45:24;;;;;;;14.45;9.40;;;;;;;;;;5046776;28;20092;-72
2022/06/13 09:48:09;;;;;;;9.82;2.50;;;;;;;;;;5029026;28;20424;-71
2022/06/13 09:50:50;;;;;;;6.03;2.40;;;;;;;;;;5046814;28;20049;-73
2022/06/13 09:54:07;;;;;;;10.33;3.00;;;;;;;;;;5046805;28;20044;-74
2022/06/13 09:56:46;;;;;;;8.02;2.15;;;;;;;;;;5043019;28;20802;-71
2022/06/13 09:59:48;;;;;;;6.90;1.98;;;;;;;;;;5046639;28;20041;-71
2022/06/13 10:02:44;;;;;;;6.40;2.10;;;;;;;;;;5046739;28;20041;-72
2022/06/13 10:05:36;;;;;;;4.38;2.03;;;;;;;;;;5046530;28;20049;-72
2022/06/13 10:08:19;;;;;;;2.55;1.63;;;;;;;;;;5046584;28;20059;-76
2022/06/13 10:11:15;;;;;;;5.05;2.45;;;;;;;;;;5046360;28;20041;-72
2022/06/13 10:14:18;;;;;;;8.40;2.08;;;;;;;;;;5046045;28;20060;-72
2022/06/13 10:17:18;;;;;;;13.13;1.95;;;;;;;;;;5046449;28;20068;-72
2022/06/13 10:20:09;;;;;;;12.63;2.15;;;;;;;;;;5046413;28;20060;-72
2022/06/13 10:22:59;;;;;;;8.18;1.73;;;;;;;;;;5045106;28;20507;-72
2022/06/13 10:25:56;;;;;;;8.25;2.25;;;;;;;;;;5044678;28;20045;-72
2022/06/13 10:28:54;;;;;;;11.98;2.22;;;;;;;;;;5046553;28;20496;-72
2022/06/13 10:31:33;;;;;;;27.55;2.63;;;;;;;;;;5046641;28;20056;-72
2022/06/13 10:34:15;;;;;;;18.50;2.85;;;;;;;;;;5046110;28;20044;-73
2022/06/13 10:37:12;;;;;;;19.98;2.70;;;;;;;;;;5046815;28;20060;-72
2022/06/13 10:39:43;;;;;;;12.60;2.15;;;;;;;;;;5045822;28;20057;-72
2022/06/13 10:42:21;;;;;;;8.63;1.83;;;;;;;;;;5045872;28;20052;-75
2022/06/13 10:44:51;;;;;;;6.65;1.58;;;;;;;;;;5046258;28;20055;-72
2022/06/13 10:47:40;;;;;;;6.63;2.00;;;;;;;;;;5046137;28;20052;-72
2022/06/13 10:50:36;;;;;;;7.80;2.15;;;;;;;;;;5046204;28;20044;-73
2022/06/13 10:53:13;;;;;;;25.27;2.67;;;;;;;;;;5041583;28;20065;-73
2022/06/13 10:55:44;;;;;;;10.77;3.10;;;;;;;;;;5046145;28;20055;-72
2022/06/13 10:58:17;;;;;;;25.83;3.13;;;;;;;;;;5046324;28;20048;-72
2022/06/13 11:01:10;;;;;;;17.30;2.80;;;;;;;;;;5046053;28;20538;-72
2022/06/13 11:03:43;;;;;;;8.88;2.75;;;;;;;;;;5045806;28;20485;-72
2022/06/13 11:06:19;;;;;;;5.90;2.53;;;;;;;;;;5046139;28;20049;-72
2022/06/13 11:08:59;;;;;;;7.25;2.97;;;;;;;;;;5046659;28;20049;-74
2022/06/13 11:11:33;;;;;;;6.32;2.33;;;;;;;;;;5048591;28;20520;-74
2022/06/13 11:14:05;;;;;;;20.80;3.60;;;;;;;;;;5049232;28;20054;-72
2022/06/13 11:22:42;;;;;;;18.27;3.05;;;;;;;;;;5049817;28;20037;-72
2022/06/13 11:25:25;;;;;;;16.40;3.33;;;;;;;;;;5049765;28;20041;-72
2022/06/13 11:28:09;;;;;;;27.88;3.10;;;;;;;;;;5049463;28;20037;-72
2022/06/13 11:31:08;;;;;;;15.18;3.35;;;;;;;;;;5049348;28;20048;-72
2022/06/13 11:33:40;;;;;;;19.20;2.50;;;;;;;;;;5045905;28;20072;-73
2022/06/13 11:36:16;;;;;;;;;;;;;;;;;;5048387;28;20060;-72
2022/06/13 11:39:29;;;;;;;36.13;9.48;;;;;;;;;;5049395;28;19939;-73
2022/06/13 11:42:00;;;;;;;23.38;2.92;;;;;;;;;;5045153;28;20523;-72
2022/06/13 11:44:39;;;;;;;20.90;2.70;;;;;;;;;;5049319;28;20642;-72
2022/06/13 11:47:10;;;;;;;17.48;3.83;;;;;;;;;;5049209;28;20049;-72
2022/06/13 11:49:43;;;;;;;10.50;2.85;;;;;;;;;;5049442;28;20048;-72
2022/06/13 11:53:35;;;;;;;7.90;2.22;;;;;;;;;;5049175;28;20071;-72
2022/06/13 11:55:18;;;;;;;5.28;1.83;;;;;;;;;;5048960;28;20516;-73
2022/06/13 11:58:00;;;;;;;12.98;2.33;;;;;;;;;;5048214;28;20053;-72
2022/06/13 12:00:51;;;;;;;12.82;2.05;;;;;;;;;;5047345;28;20052;-74
2022/06/13 12:03:24;;;;;;;9.57;2.20;;;;;;;;;;5049474;28;20053;-72
2022/06/13 12:06:10;;;;;;;9.02;2.40;;;;;;;;;;5046674;28;20053;-72
2022/06/13 12:08:41;;;;;;;5.68;2.00;;;;;;;;;;5049250;28;20504;-72
2022/06/13 12:11:13;;;;;;;3.35;1.98;;;;;;;;;;5048876;28;20498;-72
2022/06/13 12:13:45;;;;;;;5.68;2.22;;;;;;;;;;5048897;28;20049;-76
2022/06/13 12:16:33;;;;;;;9.50;2.25;;;;;;;;;;5049290;28;20798;-73
2022/06/13 12:19:23;;;;;;;10.95;2.22;;;;;;;;;;5047366;28;20041;-72
2022/06/13 12:22:11;;;;;;;6.53;2.05;;;;;;;;;;5048087;28;20048;-73
2022/06/13 12:25:09;;;;;;;12.57;2.30;;;;;;;;;;5048412;28;20068;-72
2022/06/13 12:27:52;;;;;;;7.15;2.95;;;;;;;;;;5047944;28;20063;-76
2022/06/13 12:31:00;;;;;;;16.58;2.95;;;;;;;;;;5048012;28;20049;-73
2022/06/13 12:34:04;;;;;;;10.52;3.05;;;;;;;;;;5048322;28;20044;-72
2022/06/13 12:36:46;;;;;;;5.10;2.90;;;;;;;;;;5048872;28;20413;-72
2022/06/13 12:39:35;;;;;;;5.80;2.60;;;;;;;;;;5048589;28;20052;-72
2022/06/13 12:42:23;;;;;;;13.38;3.60;;;;;;;;;;5048182;28;20052;-72
2022/06/13 12:45:31;;;;;;;4.75;2.55;;;;;;;;;;5047133;28;20526;-72
2022/06/13 12:48:15;;;;;;;4.28;2.60;;;;;;;;;;5047992;28;20625;-72
2022/06/13 12:51:07;;;;;;;4.32;2.38;;;;;;;;;;5048338;28;20045;-72
2022/06/13 12:54:00;;;;;;;3.28;2.33;;;;;;;;;;5047681;28;20060;-72
2022/06/13 12:56:50;;;;;;;8.00;2.67;;;;;;;;;;5047713;28;20037;-72
2022/06/13 12:59:32;;;;;;;4.27;2.50;;;;;;;;;;5027462;28;20060;-72
2022/06/13 13:02:17;;;;;;;8.40;2.50;;;;;;;;;;5048092;28;20053;-74
2022/06/13 13:05:03;;;;;;;8.23;2.95;;;;;;;;;;5047679;28;20044;-72
2022/06/13 13:08:01;;;;;;;5.10;1.98;;;;;;;;;;5047878;28;20497;-73
2022/06/13 13:10:39;;;;;;;3.55;2.30;;;;;;;;;;5047633;28;20047;-72
2022/06/13 13:13:30;;;;;;;10.60;2.60;;;;;;;;;;5048110;28;20057;-72
2022/06/13 13:16:00;;;;;;;6.80;2.45;;;;;;;;;;5047436;28;20052;-72
2022/06/13 13:18:40;;;;;;;6.07;2.10;;;;;;;;;;5047842;28;20056;-72
2022/06/13 13:21:21;;;;;;;11.70;2.08;;;;;;;;;;5047390;28;20385;-74
2022/06/13 13:24:00;;;;;;;5.95;1.92;;;;;;;;;;5047343;28;20401;-72
2022/06/13 13:26:47;;;;;;;6.75;1.90;;;;;;;;;;5047172;28;20053;-72
2022/06/13 13:29:44;;;;;;;24.63;3.35;;;;;;;;;;5047399;28;20053;-76
2022/06/13 13:32:26;;;;;;;5.63;2.47;;;;;;;;;;5046544;28;20055;-72
2022/06/13 13:35:06;;;;;;;5.05;2.47;;;;;;;;;;5047348;28;20648;-72
2022/06/13 13:37:39;;;;;;;4.85;2.08;;;;;;;;;;5046128;28;20048;-72
2022/06/13 13:40:13;;;;;;;6.15;2.10;;;;;;;;;;5047194;28;20053;-72
2022/06/13 13:42:46;;;;;;;7.38;2.00;;;;;;;;;;5046775;28;20051;-72
2022/06/13 13:45:31;;;;;;;6.60;2.72;;;;;;;;;;5047218;28;21034;-72
2022/06/13 13:48:12;;;;;;;9.85;3.50;;;;;;;;;;5046728;28;20386;-72
2022/06/13 13:51:08;;;;;;;5.72;2.70;;;;;;;;;;5046474;28;20504;-72
2022/06/13 13:54:05;;;;;;;7.93;2.65;;;;;;;;;;5046962;28;20053;-72
2022/06/13 13:56:53;;;;;;;5.43;2.60;;;;;;;;;;5046752;28;20033;-72
2022/06/13 13:59:31;;;;;;;8.45;3.25;;;;;;;;;;5048670;28;20045;-71
2022/06/13 14:02:26;;;;;;;14.77;2.60;;;;;;;;;;5047137;28;20060;-71
2022/06/13 14:05:08;;;;;;;7.63;2.55;;;;;;;;;;5046828;28;20048;-73
2022/06/13 14:07:55;;;;;;;6.45;2.75;;;;;;;;;;5045128;28;20053;-72
2022/06/13 14:10:28;;;;;;;5.75;3.03;;;;;;;;;;5046702;28;20048;-71
2022/06/13 14:13:29;;;;;;;6.72;2.80;;;;;;;;;;5046901;28;20060;-72
2022/06/13 14:16:07;;;;;;;15.07;2.95;;;;;;;;;;5039237;28;20057;-77
2022/06/13 14:19:11;;;;;;;7.57;3.30;;;;;;;;;;5046100;28;20048;-72
2022/06/13 14:21:45;;;;;;;9.10;3.67;;;;;;;;;;5046771;28;20049;-72
2022/06/13 14:24:23;;;;;;;9.90;3.85;;;;;;;;;;5046178;28;20052;-73
2022/06/13 14:26:59;;;;;;;4.97;2.92;;;;;;;;;;5046570;28;20049;-73
2022/06/13 14:29:38;;;;;;;20.35;7.35;;;;;;;;;;5046492;28;20453;-72
2022/06/13 14:32:31;;;;;;;9.45;4.13;;;;;;;;;;5029060;28;20067;-74
2022/06/13 14:35:15;;;;;;;7.18;3.35;;;;;;;;;;5046722;28;20044;-71
2022/06/13 14:37:48;;;;;;;13.63;3.40;;;;;;;;;;5046243;28;20048;-74
2022/06/13 14:40:20;;;;;;;11.68;2.72;;;;;;;;;;5046280;28;20412;-71
2022/06/13 14:43:04;;;;;;;5.38;2.92;;;;;;;;;;5047115;28;20052;-72
2022/06/13 14:45:43;;;;;;;12.30;2.75;;;;;;;;;;5050508;28;20148;-72
2022/06/13 14:48:38;;;;;;;5.20;2.17;;;;;;;;;;5050302;28;20056;-73
2022/06/13 14:51:15;;;;;;;7.47;2.95;;;;;;;;;;5050251;28;20052;-72
2022/06/13 14:53:52;;;;;;;16.85;3.13;;;;;;;;;;5049069;28;20416;-72
2022/06/13 14:56:29;;;;;;;8.57;3.28;;;;;;;;;;5050233;28;20052;-72
2022/06/13 14:59:09;;;;;;;6.35;2.55;;;;;;;;;;5050596;28;20797;-71
2022/06/13 15:01:43;;;;;;;8.60;2.72;;;;;;;;;;5049838;28;20074;-72
2022/06/13 15:04:17;;;;;;;10.55;2.50;;;;;;;;;;5050025;28;20029;-72
2022/06/13 15:07:10;;;;;;;9.70;2.28;;;;;;;;;;5050071;28;20045;-71
2022/06/13 15:10:05;;;;;;;13.43;2.50;;;;;;;;;;5049880;28;20068;-71
2022/06/13 15:12:43;;;;;;;5.43;2.03;;;;;;;;;;5049077;28;20786;-72
2022/06/13 15:15:24;;;;;;;7.72;1.88;;;;;;;;;;5049378;28;20524;-71
2022/06/13 15:17:56;;;;;;;6.03;1.73;;;;;;;;;;5049257;28;20037;-71
2022/06/13 15:20:34;;;;;;;8.93;1.88;;;;;;;;;;5049253;28;20052;-73
2022/06/13 15:23:16;;;;;;;14.05;2.75;;;;;;;;;;5049271;28;20059;-72
2022/06/13 15:25:49;;;;;;;4.65;1.83;;;;;;;;;;5049103;28;20067;-71
2022/06/13 15:28:22;;;;;;;10.13;2.10;;;;;;;;;;5049478;28;20404;-71
2022/06/13 15:31:16;;;;;;;9.18;2.08;;;;;;;;;;5049716;28;20037;-72
2022/06/13 15:34:06;;;;;;;3.53;1.30;;;;;;;;;;5049317;28;20041;-72
2022/06/13 15:36:37;;;;;;;8.32;2.03;;;;;;;;;;5049638;28;20509;-71
2022/06/13 15:39:12;;;;;;;7.47;2.30;;;;;;;;;;5049194;28;20217;-73
2022/06/13 15:41:49;;;;;;;6.63;1.70;;;;;;;;;;5049696;28;20535;-72
2022/06/13 15:44:23;;;;;;;5.22;1.50;;;;;;;;;;5049674;28;20047;-76
2022/06/13 15:47:05;;;;;;;3.50;1.35;;;;;;;;;;5049356;28;20047;-72
2022/06/13 15:49:40;;;;;;;4.55;1.40;;;;;;;;;;5050071;28;20045;-72
2022/06/13 15:52:14;;;;;;;3.00;1.20;;;;;;;;;;5049029;28;20056;-72
2022/06/13 15:54:50;;;;;;;5.90;1.60;;;;;;;;;;5048400;28;20045;-73
2022/06/13 15:57:20;;;;;;;4.72;1.88;;;;;;;;;;5048792;28;20055;-72
2022/06/13 15:59:55;;;;;;;7.10;1.85;;;;;;;;;;5048204;28;20061;-74
2022/06/13 16:02:39;;;;;;;7.05;1.88;;;;;;;;;;5048835;28;20037;-72
2022/06/13 16:05:21;;;;;;;7.03;1.70;;;;;;;;;;5046675;28;20057;-73
2022/06/13 16:07:58;;;;;;;10.27;1.95;;;;;;;;;;5048303;28;20396;-74
2022/06/13 16:10:39;;;;;;;5.60;1.98;;;;;;;;;;5048589;28;20519;-74
2022/06/13 16:13:20;;;;;;;6.22;2.00;;;;;;;;;;5048976;28;20068;-72
2022/06/13 16:15:50;;;;;;;7.20;2.10;;;;;;;;;;5048698;28;20055;-72
2022/06/13 16:18:42;;;;;;;14.68;2.83;;;;;;;;;;5048509;28;20060;-72